Time;durP1;ratioP1;P1;durP2;ratioP2;P2;SDS_P1;SDS_P2;PMS_P1;PMS_P2;Temp;Humidity;BMP_temperature;BMP_pressure;BME280_temperature;BME280_humidity;BME280_pressure;Samples;Min_cycle;Max_cycle;Signal;HPM_P1;HPM_P2
2021/05/24 00:00:24;;;;;;;0.10;0.10;;;;;;;14.86;63.91;98401.78;5072682;28;20489;-63
2021/05/24 00:02:51;;;;;;;0.10;0.10;;;;;;;14.86;64.13;98407.31;5072732;28;20096;-63
2021/05/24 00:05:23;;;;;;;0.20;0.20;;;;;;;14.91;63.70;98418.38;5072257;28;20036;-63
2021/05/24 00:07:49;;;;;;;0.10;0.10;;;;;;;14.96;63.53;98436.88;5072042;28;20469;-63
2021/05/24 00:10:19;;;;;;;0.10;0.10;;;;;;;15.03;63.56;98420.88;5072466;28;20028;-63
2021/05/24 00:12:47;;;;;;;0.40;0.40;;;;;;;15.07;63.42;98461.56;5074808;28;20033;-64
2021/05/24 00:15:16;;;;;;;0.13;0.13;;;;;;;15.12;63.72;98455.19;5076050;28;20037;-64
2021/05/24 00:17:42;;;;;;;0.30;0.30;;;;;;;15.18;63.62;98439.44;5076000;28;20554;-65
2021/05/24 00:20:08;;;;;;;0.10;0.10;;;;;;;15.13;63.43;98434.72;5075901;28;20033;-64
2021/05/24 00:22:35;;;;;;;0.32;0.32;;;;;;;15.06;63.82;98461.81;5076160;28;20032;-64
2021/05/24 00:25:00;;;;;;;0.43;0.43;;;;;;;15.02;64.06;98500.25;5076065;28;20508;-65
2021/05/24 00:27:26;;;;;;;0.55;0.55;;;;;;;15.04;64.11;98484.19;5076287;28;20059;-64
2021/05/24 00:29:52;;;;;;;0.38;0.38;;;;;;;15.07;63.88;98483.69;5075593;28;20405;-64
2021/05/24 00:32:18;;;;;;;0.43;0.30;;;;;;;15.10;64.15;98545.06;5075874;28;20414;-63
2021/05/24 00:34:43;;;;;;;0.20;0.20;;;;;;;15.12;63.71;98581.56;5057620;28;20025;-63
2021/05/24 00:37:09;;;;;;;0.20;0.20;;;;;;;15.11;63.78;98558.59;5075723;28;20032;-65
2021/05/24 00:39:35;;;;;;;0.50;0.50;;;;;;;15.08;63.89;98575.75;5075567;28;20402;-64
2021/05/24 00:42:02;;;;;;;0.32;0.32;;;;;;;15.04;64.24;98586.50;5057665;28;20032;-64
2021/05/24 00:44:29;;;;;;;0.30;0.30;;;;;;;14.93;64.54;98584.81;5075501;28;20028;-63
2021/05/24 00:46:55;;;;;;;0.20;0.20;;;;;;;14.80;64.73;98564.00;5075383;28;20486;-63
2021/05/24 00:49:28;;;;;;;0.28;0.28;;;;;;;14.72;64.96;98570.03;5077323;28;20052;-63
2021/05/24 00:51:55;;;;;;;0.10;0.10;;;;;;;14.64;64.90;98552.03;5077150;28;20029;-62
2021/05/24 00:54:23;;;;;;;0.10;0.10;;;;;;;14.60;65.11;98541.75;5077970;28;20029;-63
2021/05/24 00:56:49;;;;;;;0.13;0.13;;;;;;;14.53;65.14;98511.59;5079270;28;20032;-65
2021/05/24 00:59:16;;;;;;;0.60;0.40;;;;;;;14.40;65.14;98487.22;5078142;28;20043;-64
2021/05/24 01:01:42;;;;;;;1.95;0.82;;;;;;;14.30;65.54;98493.53;5060391;28;20056;-65
2021/05/24 01:04:09;;;;;;;0.28;0.28;;;;;;;14.18;66.00;98486.28;5075984;28;20106;-65
2021/05/24 01:06:34;;;;;;;0.30;0.30;;;;;;;14.14;65.96;98474.09;5075416;28;20035;-66
2021/05/24 01:09:00;;;;;;;0.20;0.20;;;;;;;14.17;65.81;98483.78;5075756;28;20470;-65
2021/05/24 01:11:26;;;;;;;0.20;0.20;;;;;;;14.26;65.52;98487.69;5075506;28;20028;-65
2021/05/24 01:13:53;;;;;;;0.30;0.30;;;;;;;14.34;64.93;98483.63;5075049;28;20036;-65
2021/05/24 01:16:18;;;;;;;0.52;0.50;;;;;;;14.43;64.95;98470.09;5075227;28;20410;-63
2021/05/24 01:18:44;;;;;;;0.30;0.30;;;;;;;14.52;64.64;98466.56;5075082;28;20033;-64
2021/05/24 01:21:12;;;;;;;0.28;0.28;;;;;;;14.65;64.19;98445.94;5056844;28;20024;-64
2021/05/24 01:23:40;;;;;;;0.35;0.35;;;;;;;14.80;64.21;98453.44;5056475;28;20107;-65
2021/05/24 01:26:07;;;;;;;0.43;0.43;;;;;;;14.92;63.45;98461.50;5074651;28;20033;-64
2021/05/24 01:28:33;;;;;;;0.55;0.55;;;;;;;15.05;63.31;98474.81;5074692;28;20028;-64
2021/05/24 01:30:58;;;;;;;1.02;0.73;;;;;;;15.28;62.90;98480.94;5040238;28;20555;-64
2021/05/24 01:33:24;;;;;;;0.95;0.63;;;;;;;15.59;62.22;98480.97;5074773;28;20037;-65
2021/05/24 01:35:50;;;;;;;0.15;0.15;;;;;;;16.01;61.39;98498.44;5056721;28;20020;-64
2021/05/24 01:38:16;;;;;;;0.10;0.10;;;;;;;16.35;60.42;98497.84;5074705;28;20394;-63
2021/05/24 01:40:44;;;;;;;1.65;0.52;;;;;;;16.63;60.06;98486.09;5074445;28;20474;-64
2021/05/24 01:43:10;;;;;;;0.73;0.73;;;;;;;17.17;58.94;98484.50;5074862;28;20090;-65
2021/05/24 01:45:38;;;;;;;0.20;0.20;;;;;;;17.58;57.99;98488.13;5074387;28;20033;-64
2021/05/24 01:48:05;;;;;;;0.43;0.43;;;;;;;17.69;58.00;98478.59;5074167;28;20068;-64
2021/05/24 01:50:31;;;;;;;0.65;0.47;;;;;;;17.73;57.94;98476.91;5056591;28;20090;-65
2021/05/24 01:52:57;;;;;;;0.32;0.32;;;;;;;18.44;56.83;98473.75;5074195;28;20028;-64
2021/05/24 01:55:22;;;;;;;0.47;0.43;;;;;;;19.02;55.59;98450.53;5074326;28;20040;-64
2021/05/24 01:57:48;;;;;;;0.40;0.40;;;;;;;19.82;54.08;98454.38;5074210;28;20033;-64
2021/05/24 02:00:21;;;;;;;0.30;0.30;;;;;;;21.01;51.50;98447.34;5056173;28;20028;-63
2021/05/24 02:02:47;;;;;;;0.22;0.22;;;;;;;22.17;49.57;98448.75;5073863;28;20043;-63
2021/05/24 02:05:14;;;;;;;0.30;0.30;;;;;;;22.91;48.37;98433.28;5056113;28;20127;-64
2021/05/24 02:07:41;;;;;;;0.10;0.10;;;;;;;23.76;47.33;98438.47;5073740;28;20052;-65
2021/05/24 02:10:12;;;;;;;0.28;0.13;;;;;;;24.31;46.66;98427.66;5056215;28;20035;-63
2021/05/24 02:12:38;;;;;;;0.52;0.50;;;;;;;24.75;46.55;98438.69;5074080;28;20032;-61
2021/05/24 02:15:06;;;;;;;0.47;0.47;;;;;;;23.96;48.06;98424.94;5066367;28;20110;-61
2021/05/24 02:17:32;;;;;;;1.00;0.50;;;;;;;22.78;50.89;98426.66;5071567;28;20039;-61
2021/05/24 02:19:58;;;;;;;0.50;0.30;;;;;;;22.89;51.03;98436.41;5069443;28;20025;-62
2021/05/24 02:22:25;;;;;;;0.10;0.10;;;;;;;22.74;51.55;98418.06;5072159;28;20058;-61
2021/05/24 02:24:51;;;;;;;1.13;0.60;;;;;;;22.05;53.27;98408.25;5072031;28;20067;-61
2021/05/24 02:27:17;;;;;;;0.85;0.85;;;;;;;21.29;55.15;98411.81;5071941;28;20061;-61
2021/05/24 02:29:43;;;;;;;0.40;0.40;;;;;;;20.46;56.72;98406.34;5071720;28;20032;-61
2021/05/24 02:32:09;;;;;;;1.08;0.30;;;;;;;19.93;57.71;98385.34;5053969;28;20078;-62
2021/05/24 02:34:35;;;;;;;0.32;0.32;;;;;;;19.52;58.47;98398.03;5071639;28;20039;-61
2021/05/24 02:37:02;;;;;;;0.55;0.55;;;;;;;19.19;58.89;98381.28;5072092;28;20456;-62
2021/05/24 02:39:27;;;;;;;0.40;0.40;;;;;;;18.96;59.32;98388.56;5071683;28;20032;-61
2021/05/24 02:41:53;;;;;;;0.70;0.70;;;;;;;18.99;58.93;98376.88;5068764;28;20021;-63
2021/05/24 02:44:19;;;;;;;0.55;0.45;;;;;;;20.18;55.82;98370.09;5071541;28;20043;-61
2021/05/24 02:46:45;;;;;;;1.05;0.38;;;;;;;22.54;50.32;98362.72;5071230;28;20020;-61
2021/05/24 02:49:11;;;;;;;0.32;0.32;;;;;;;24.61;46.04;98349.13;5053846;28;20505;-62
2021/05/24 02:51:39;;;;;;;0.28;0.28;;;;;;;26.39;43.10;98335.53;5053542;28;20020;-64
2021/05/24 02:54:06;;;;;;;0.20;0.20;;;;;;;27.91;41.15;98338.88;5071481;28;20028;-62
2021/05/24 02:56:33;;;;;;;0.30;0.30;;;;;;;29.24;39.53;98329.19;5053827;28;20040;-62
2021/05/24 02:58:59;;;;;;;0.22;0.22;;;;;;;28.97;40.72;98326.97;5068860;28;20036;-61
2021/05/24 03:01:27;;;;;;;1.15;0.65;;;;;;;29.95;39.25;98307.16;5051232;28;20425;-61
2021/05/24 03:03:57;;;;;;;0.20;0.20;;;;;;;30.71;38.60;98299.91;5051050;28;20043;-62
2021/05/24 03:06:23;;;;;;;0.20;0.20;;;;;;;30.80;38.62;98305.28;5069331;28;20032;-63
2021/05/24 03:08:50;;;;;;;0.52;0.35;;;;;;;30.72;39.39;98287.38;5069266;28;20563;-64
2021/05/24 03:11:22;;;;;;;0.13;0.13;;;;;;;31.01;39.03;98282.16;5069681;28;20028;-62
2021/05/24 03:13:48;;;;;;;0.35;0.35;;;;;;;31.16;39.25;98281.09;5070263;28;20021;-62
2021/05/24 03:16:15;;;;;;;0.20;0.20;;;;;;;30.85;39.59;98285.13;5069846;28;20028;-63
2021/05/24 03:18:40;;;;;;;0.40;0.30;;;;;;;31.76;38.34;98282.22;5071508;28;20371;-62
2021/05/24 03:21:06;;;;;;;0.20;0.20;;;;;;;32.17;37.59;98270.03;5069717;28;20025;-62
2021/05/24 03:23:32;;;;;;;0.30;0.22;;;;;;;32.49;37.49;98279.63;5065126;28;20646;-63
2021/05/24 03:25:58;;;;;;;0.20;0.20;;;;;;;32.70;37.10;98278.16;5594964;23;20045;-65
2021/05/24 03:28:24;;;;;;;0.28;0.28;;;;;;;33.18;36.67;98283.66;5029043;28;20048;-67
2021/05/24 03:30:49;;;;;;;0.10;0.10;;;;;;;33.31;37.05;98292.69;5049167;28;20098;-66
2021/05/24 03:33:15;;;;;;;0.10;0.10;;;;;;;34.01;35.68;98277.41;5050322;28;20033;-66
2021/05/24 03:35:41;;;;;;;0.90;0.40;;;;;;;34.84;34.54;98272.50;5025607;28;20029;-66
2021/05/24 03:38:07;;;;;;;0.17;0.17;;;;;;;34.77;35.04;98263.13;5047079;28;20037;-71
2021/05/24 03:40:33;;;;;;;0.20;0.20;;;;;;;33.52;37.13;98268.38;5012155;28;20410;-67
2021/05/24 03:42:59;;;;;;;0.17;0.13;;;;;;;32.78;38.47;98250.59;5061935;28;20040;-67
2021/05/24 03:45:31;;;;;;;0.00;0.00;;;;;;;31.96;39.95;98251.56;5041664;28;20164;-66
2021/05/24 03:47:57;;;;;;;0.55;0.30;;;;;;;32.43;38.74;98234.91;5033331;28;20598;-67
2021/05/24 03:50:25;;;;;;;0.30;0.30;;;;;;;33.24;37.47;98234.97;5047164;28;20108;-67
2021/05/24 03:52:51;;;;;;;0.68;0.52;;;;;;;34.29;36.16;98238.78;5046925;28;20044;-67
2021/05/24 03:55:19;;;;;;;0.20;0.20;;;;;;;34.34;36.14;98229.84;5045085;28;20028;-66
2021/05/24 03:57:48;;;;;;;0.10;0.10;;;;;;;34.57;35.73;98220.81;5045583;28;20452;-66
2021/05/24 04:00:15;;;;;;;0.43;0.43;;;;;;;35.32;34.67;98218.94;5032540;28;20071;-67
2021/05/24 04:02:42;;;;;;;0.10;0.10;;;;;;;36.28;33.36;98214.59;5051351;28;20374;-67
2021/05/24 04:05:15;;;;;;;0.20;0.20;;;;;;;36.92;33.04;98206.56;5053252;28;20056;-66
2021/05/24 04:07:43;;;;;;;0.10;0.10;;;;;;;37.14;32.83;98215.69;5044325;28;20576;-65
2021/05/24 04:10:09;;;;;;;0.00;0.00;;;;;;;36.11;34.72;98215.53;5043955;28;20059;-66
2021/05/24 04:12:35;;;;;;;0.10;0.10;;;;;;;36.03;34.82;98222.53;5043214;28;20124;-66
2021/05/24 04:15:01;;;;;;;0.25;0.25;;;;;;;36.80;33.90;98212.84;5042535;28;20127;-66
2021/05/24 04:17:29;;;;;;;0.20;0.10;;;;;;;36.99;33.08;98212.19;5049273;28;20032;-66
2021/05/24 04:19:54;;;;;;;0.20;0.20;;;;;;;37.10;33.35;98202.66;5047552;28;20119;-68
2021/05/24 04:22:20;;;;;;;0.10;0.10;;;;;;;37.44;33.19;98213.25;5047460;28;20041;-66
2021/05/24 04:24:49;;;;;;;0.30;0.30;;;;;;;37.43;33.11;98189.56;5049533;28;20036;-65
2021/05/24 04:27:15;;;;;;;0.47;0.30;;;;;;;37.66;32.63;98211.72;5018454;28;20060;-66
2021/05/24 04:29:41;;;;;;;0.20;0.20;;;;;;;37.90;32.40;98185.97;5011330;28;20029;-67
2021/05/24 04:32:08;;;;;;;0.20;0.20;;;;;;;37.94;32.25;98194.50;5011897;28;20087;-66
2021/05/24 04:34:37;;;;;;;0.10;0.10;;;;;;;37.62;32.68;98176.56;5027990;28;20033;-69
2021/05/24 04:37:03;;;;;;;0.43;0.28;;;;;;;37.17;33.53;98173.94;5031294;28;20057;-69
2021/05/24 04:39:29;;;;;;;0.10;0.10;;;;;;;37.02;33.85;98181.13;5005446;28;20056;-65
2021/05/24 04:41:54;;;;;;;0.40;0.30;;;;;;;36.86;34.19;98162.50;5000521;28;20044;-67
2021/05/24 04:44:20;;;;;;;0.38;0.20;;;;;;;36.84;34.05;98170.72;5021294;28;20042;-70
2021/05/24 04:46:47;;;;;;;0.10;0.10;;;;;;;37.38;32.79;98163.47;5024092;28;20033;-67
2021/05/24 04:49:14;;;;;;;0.10;0.10;;;;;;;37.84;32.23;98144.72;5021881;28;20383;-68
2021/05/24 04:51:40;;;;;;;0.60;0.55;;;;;;;38.11;31.78;98149.59;5027266;28;20048;-67
2021/05/24 04:54:07;;;;;;;0.20;0.20;;;;;;;38.41;31.49;98144.97;5027472;28;20136;-66
2021/05/24 04:56:36;;;;;;;0.20;0.20;;;;;;;38.11;32.13;98132.41;5005936;28;20030;-67
2021/05/24 04:59:03;;;;;;;0.20;0.20;;;;;;;36.41;34.28;98125.44;5010892;28;20112;-67
2021/05/24 05:01:29;;;;;;;0.63;0.47;;;;;;;34.70;36.78;98112.84;5030188;28;20025;-65
2021/05/24 05:03:55;;;;;;;0.20;0.20;;;;;;;34.41;37.27;98127.22;5030489;28;20038;-68
2021/05/24 05:06:21;;;;;;;0.20;0.20;;;;;;;35.39;35.51;98111.25;5028608;28;20041;-67
2021/05/24 05:08:47;;;;;;;0.40;0.40;;;;;;;36.51;33.27;98115.91;5026553;28;20030;-66
2021/05/24 05:11:16;;;;;;;0.40;0.40;;;;;;;37.26;32.17;98117.00;5031757;28;20116;-66
2021/05/24 05:13:42;;;;;;;1.40;0.60;;;;;;;37.90;31.62;98114.34;5032682;28;20037;-66
2021/05/24 05:16:09;;;;;;;1.95;0.30;;;;;;;38.61;30.52;98107.69;5014200;28;20041;-67
2021/05/24 05:18:35;;;;;;;0.30;0.30;;;;;;;39.42;29.63;98098.50;5030304;28;20069;-66
2021/05/24 05:21:01;;;;;;;0.47;0.47;;;;;;;39.90;29.11;98098.13;5027653;28;20044;-66
2021/05/24 05:23:27;;;;;;;0.20;0.20;;;;;;;40.27;28.85;98110.28;5030276;28;20510;-65
2021/05/24 05:25:53;;;;;;;0.40;0.40;;;;;;;39.74;29.58;98096.91;5032393;28;20037;-67
2021/05/24 05:28:21;;;;;;;0.55;0.50;;;;;;;38.10;31.70;98099.25;5045028;28;20551;-66
2021/05/24 05:30:47;;;;;;;0.88;0.43;;;;;;;36.21;34.66;98086.03;5045970;28;20043;-66
2021/05/24 05:33:13;;;;;;;0.65;0.38;;;;;;;36.49;33.95;98089.81;5049755;28;20410;-68
2021/05/24 05:35:39;;;;;;;0.32;0.20;;;;;;;37.29;32.18;98092.44;5031053;28;20024;-67
2021/05/24 05:38:05;;;;;;;0.10;0.10;;;;;;;37.34;32.24;98098.47;5049119;28;20082;-69
2021/05/24 05:40:32;;;;;;;0.30;0.30;;;;;;;36.60;33.44;98089.69;5054586;28;20437;-67
2021/05/24 05:42:58;;;;;;;0.90;0.20;;;;;;;35.22;34.66;98081.59;5071459;28;20041;-66
2021/05/24 05:45:24;;;;;;;0.40;0.40;;;;;;;33.78;36.80;98087.06;5064122;28;20033;-67
2021/05/24 05:47:50;;;;;;;0.43;0.40;;;;;;;32.71;38.10;98074.31;5053540;28;20485;-67
2021/05/24 05:50:16;;;;;;;0.15;0.15;;;;;;;31.84;38.86;98071.00;5055058;28;20041;-67
2021/05/24 05:52:42;;;;;;;0.10;0.10;;;;;;;31.20;39.63;98074.97;5068544;28;20515;-67
2021/05/24 05:55:08;;;;;;;0.20;0.20;;;;;;;30.80;39.85;98055.91;5031314;28;20490;-69
2021/05/24 05:57:34;;;;;;;0.40;0.40;;;;;;;30.50;39.79;98054.78;5051325;28;20578;-70
2021/05/24 06:00:00;;;;;;;0.20;0.20;;;;;;;30.09;39.93;98067.97;5051619;28;20033;-66
2021/05/24 06:02:26;;;;;;;0.30;0.30;;;;;;;29.68;40.04;98063.75;5051421;28;20090;-67
2021/05/24 06:04:52;;;;;;;0.52;0.47;;;;;;;29.38;40.15;98051.56;5051300;28;20065;-67
2021/05/24 06:07:18;;;;;;;0.32;0.32;;;;;;;29.01;40.34;98067.06;5071526;28;20067;-66
2021/05/24 06:09:44;;;;;;;0.43;0.43;;;;;;;28.73;40.67;98058.88;5070577;28;20154;-66
2021/05/24 06:12:10;;;;;;;0.10;0.10;;;;;;;28.59;40.20;98051.75;5071263;28;20547;-65
2021/05/24 06:14:37;;;;;;;0.35;0.35;;;;;;;28.41;40.37;98051.38;5065727;28;20525;-67
2021/05/24 06:17:04;;;;;;;0.10;0.10;;;;;;;28.29;40.39;98046.69;5046346;28;20037;-64
2021/05/24 06:19:30;;;;;;;0.55;0.25;;;;;;;28.24;39.91;98049.81;5050999;28;20033;-65
2021/05/24 06:21:55;;;;;;;0.20;0.20;;;;;;;28.20;39.83;98048.94;5058753;28;20134;-65
2021/05/24 06:24:21;;;;;;;0.10;0.10;;;;;;;28.17;39.71;98035.56;5062414;28;20634;-65
2021/05/24 06:26:47;;;;;;;0.30;0.30;;;;;;;27.98;39.93;98033.56;5042425;28;20569;-65
2021/05/24 06:29:13;;;;;;;0.43;0.25;;;;;;;27.81;39.83;98034.75;5061643;28;20028;-65
2021/05/24 06:31:42;;;;;;;0.20;0.20;;;;;;;27.71;39.54;98019.25;5067071;28;20034;-66
2021/05/24 06:34:08;;;;;;;0.40;0.40;;;;;;;27.68;39.43;98014.34;5049209;28;20041;-66
2021/05/24 06:36:34;;;;;;;0.15;0.15;;;;;;;27.65;39.61;98006.63;5045224;28;20761;-66
2021/05/24 06:39:00;;;;;;;0.20;0.20;;;;;;;27.58;39.77;98004.44;5058485;28;20028;-67
2021/05/24 06:41:25;;;;;;;0.10;0.10;;;;;;;27.54;39.29;98003.53;5051345;28;20502;-65
2021/05/24 06:43:51;;;;;;;0.45;0.22;;;;;;;27.54;39.44;98008.38;5050242;28;20033;-65
2021/05/24 06:46:17;;;;;;;0.57;0.25;;;;;;;27.53;39.38;98004.75;5051657;28;20068;-66
2021/05/24 06:48:43;;;;;;;0.20;0.20;;;;;;;27.49;39.24;98001.03;5050557;28;20518;-65
2021/05/24 06:51:08;;;;;;;0.17;0.17;;;;;;;27.42;38.87;97998.03;5043924;28;20033;-65
2021/05/24 06:53:34;;;;;;;3.30;0.50;;;;;;;27.35;38.91;97993.03;5056420;28;20039;-65
2021/05/24 06:56:00;;;;;;;0.05;0.05;;;;;;;27.31;38.96;97983.66;5068696;28;20036;-65
2021/05/24 06:58:26;;;;;;;0.13;0.13;;;;;;;27.25;39.15;97983.13;5050407;28;20036;-65
2021/05/24 07:00:52;;;;;;;3.55;0.35;;;;;;;27.30;38.76;97982.03;5049996;28;20409;-65
2021/05/24 07:03:17;;;;;;;0.55;0.55;;;;;;;27.37;38.75;97987.03;5069745;28;20508;-65
2021/05/24 07:05:43;;;;;;;7.70;0.50;;;;;;;27.38;38.61;97997.94;5059500;28;20028;-66
2021/05/24 07:08:09;;;;;;;0.65;0.65;;;;;;;27.36;38.33;98000.31;5061133;28;20036;-65
2021/05/24 07:10:36;;;;;;;0.13;0.13;;;;;;;27.37;38.59;97987.03;5063325;28;20087;-65
2021/05/24 07:13:02;;;;;;;0.13;0.13;;;;;;;27.35;38.56;97986.59;5049550;28;20120;-66
2021/05/24 07:15:27;;;;;;;0.20;0.20;;;;;;;27.39;38.27;97993.13;5050064;28;20123;-65
2021/05/24 07:17:55;;;;;;;0.73;0.20;;;;;;;27.44;38.44;97987.19;5069369;28;20406;-65
2021/05/24 07:20:21;;;;;;;0.10;0.10;;;;;;;27.52;37.92;97985.38;5069681;28;20051;-68
2021/05/24 07:22:47;;;;;;;0.10;0.10;;;;;;;27.53;37.82;97976.56;5055347;28;20043;-66
2021/05/24 07:25:13;;;;;;;0.70;0.70;;;;;;;27.51;37.75;97978.91;5048086;28;20037;-65
2021/05/24 07:27:39;;;;;;;0.57;0.25;;;;;;;27.47;37.88;97994.91;5003048;28;20053;-65
2021/05/24 07:30:05;;;;;;;0.10;0.10;;;;;;;27.48;38.02;98002.19;5029174;28;20107;-66
2021/05/24 07:32:31;;;;;;;0.10;0.10;;;;;;;27.55;37.60;97999.53;5029803;28;20044;-67
2021/05/24 07:34:57;;;;;;;0.08;0.08;;;;;;;27.58;37.81;97993.16;5040629;28;20037;-66
2021/05/24 07:37:22;;;;;;;0.15;0.15;;;;;;;27.66;37.55;97982.03;5026673;28;20064;-66
2021/05/24 07:39:48;;;;;;;0.10;0.10;;;;;;;27.73;37.66;97983.00;5028141;28;20061;-67
2021/05/24 07:42:14;;;;;;;0.52;0.52;;;;;;;27.79;37.25;97989.19;5012461;28;20461;-65
2021/05/24 07:44:40;;;;;;;0.10;0.10;;;;;;;27.86;37.45;97986.50;5028145;28;20036;-66
2021/05/24 07:47:07;;;;;;;0.40;0.40;;;;;;;27.86;37.49;97986.50;5027621;28;20064;-71
2021/05/24 07:49:33;;;;;;;0.68;0.32;;;;;;;27.89;37.07;97982.94;5028064;28;20057;-65
2021/05/24 07:51:59;;;;;;;0.10;0.10;;;;;;;27.93;37.29;97983.84;5025921;28;20041;-68
2021/05/24 07:54:25;;;;;;;0.10;0.10;;;;;;;27.94;37.16;97993.97;5020126;28;20035;-65
2021/05/24 07:56:52;;;;;;;0.15;0.15;;;;;;;27.93;37.31;97980.19;5028590;28;20111;-67
2021/05/24 07:59:18;;;;;;;0.47;0.30;;;;;;;27.91;37.32;97988.22;5028007;28;20221;-65
2021/05/24 08:01:44;;;;;;;0.20;0.20;;;;;;;27.90;37.21;97976.13;5026976;28;20029;-65
2021/05/24 08:04:10;;;;;;;0.20;0.20;;;;;;;27.91;36.89;97979.75;5023280;28;20046;-65
2021/05/24 08:06:37;;;;;;;0.10;0.10;;;;;;;27.94;37.13;97973.38;5027637;28;20536;-65
2021/05/24 08:09:04;;;;;;;0.10;0.10;;;;;;;27.99;36.80;97972.28;5023444;28;20033;-65
2021/05/24 08:11:30;;;;;;;0.25;0.25;;;;;;;28.00;37.07;97971.91;5011082;28;20065;-65
2021/05/24 08:13:57;;;;;;;0.10;0.10;;;;;;;28.04;36.76;97974.81;5012481;28;20179;-66
2021/05/24 08:16:24;;;;;;;0.30;0.30;;;;;;;28.08;36.62;97973.69;5033999;28;20060;-65
2021/05/24 08:18:50;;;;;;;0.10;0.10;;;;;;;28.16;36.48;97965.38;5030485;28;20045;-65
2021/05/24 08:21:16;;;;;;;0.10;0.10;;;;;;;28.23;36.31;97957.06;5029170;28;20042;-65
2021/05/24 08:23:43;;;;;;;1.20;0.43;;;;;;;28.30;36.41;97966.47;5018898;28;20057;-64
2021/05/24 08:26:10;;;;;;;0.15;0.15;;;;;;;28.37;36.13;97959.31;5015364;28;20053;-65
2021/05/24 08:28:35;;;;;;;0.10;0.10;;;;;;;28.43;36.44;97958.66;5047314;28;20029;-64
2021/05/24 08:31:01;;;;;;;0.10;0.10;;;;;;;28.50;35.89;97960.78;5049367;28;20667;-65
2021/05/24 08:33:31;;;;;;;0.10;0.10;;;;;;;28.55;35.88;97954.00;5068774;28;20036;-66
2021/05/24 08:35:57;;;;;;;0.43;0.43;;;;;;;28.53;35.90;97960.03;5061149;28;20036;-66
2021/05/24 08:38:23;;;;;;;0.10;0.10;;;;;;;28.54;36.02;97958.84;5050443;28;20985;-65
2021/05/24 08:40:49;;;;;;;0.73;0.38;;;;;;;28.56;35.74;97947.16;5048943;28;20043;-64
2021/05/24 08:43:16;;;;;;;0.15;0.15;;;;;;;28.57;35.48;97938.31;5046918;28;20033;-65
2021/05/24 08:45:43;;;;;;;0.10;0.10;;;;;;;28.64;35.36;97940.50;5052489;28;20033;-66
2021/05/24 08:48:10;;;;;;;0.05;0.05;;;;;;;28.70;35.36;97938.19;5051608;28;20090;-66
2021/05/24 08:50:37;;;;;;;0.10;0.10;;;;;;;28.78;35.23;97937.09;5046907;28;20075;-66
2021/05/24 08:53:08;;;;;;;2.08;0.85;;;;;;;28.90;35.18;97928.44;5048615;28;20029;-65
2021/05/24 08:55:34;;;;;;;0.10;0.10;;;;;;;29.04;35.03;97939.13;5050394;28;20037;-66
2021/05/24 08:58:00;;;;;;;0.10;0.10;;;;;;;29.15;34.66;97927.97;5052805;28;20498;-67
2021/05/24 09:00:27;;;;;;;0.10;0.10;;;;;;;29.22;34.50;97930.16;5051907;28;20128;-66
2021/05/24 09:02:55;;;;;;;0.13;0.13;;;;;;;29.26;34.32;97923.34;5056123;28;20562;-68
2021/05/24 09:05:26;;;;;;;0.22;0.22;;;;;;;29.28;34.48;97918.09;5072409;28;20037;-66
2021/05/24 09:08:02;;;;;;;0.10;0.10;;;;;;;29.34;34.31;97905.28;5059406;28;20033;-65
2021/05/24 09:10:29;;;;;;;0.22;0.22;;;;;;;29.37;34.14;97909.34;5052206;28;20102;-66
2021/05/24 09:12:56;;;;;;;0.10;0.10;;;;;;;29.39;34.30;97908.97;5049036;28;20502;-66
2021/05/24 09:15:24;;;;;;;0.17;0.17;;;;;;;29.43;33.93;97898.53;5047273;28;20040;-65
2021/05/24 09:17:55;;;;;;;0.15;0.15;;;;;;;29.51;34.00;97897.44;5045889;28;20033;-65
2021/05/24 09:20:28;;;;;;;0.00;0.00;;;;;;;29.57;33.79;97904.38;5048938;28;20067;-65
2021/05/24 09:23:14;;;;;;;0.15;0.15;;;;;;;29.69;33.64;97911.78;5049910;28;20099;-65
2021/05/24 09:25:57;;;;;;;0.10;0.10;;;;;;;29.77;33.51;97909.88;5043037;28;20102;-66
2021/05/24 09:28:43;;;;;;;0.00;0.00;;;;;;;29.84;33.55;97893.00;5051686;28;20049;-66
2021/05/24 09:31:16;;;;;;;0.00;0.00;;;;;;;29.84;33.41;97898.66;5048503;28;20040;-65
2021/05/24 09:33:45;;;;;;;0.30;0.20;;;;;;;29.89;33.22;97887.03;5047883;28;20135;-65
2021/05/24 09:36:12;;;;;;;0.10;0.10;;;;;;;29.88;33.20;97897.50;5051700;28;20041;-64
2021/05/24 09:38:43;;;;;;;0.75;0.43;;;;;;;29.93;33.21;97887.03;5050391;28;20036;-65
2021/05/24 09:41:11;;;;;;;0.00;0.00;;;;;;;29.98;32.95;97887.53;5040126;28;20075;-66
2021/05/24 09:43:40;;;;;;;0.10;0.10;;;;;;;30.05;33.04;97878.31;5042052;28;20060;-65
2021/05/24 09:46:21;;;;;;;0.00;0.00;;;;;;;30.10;32.94;97869.44;5043576;28;20052;-65
2021/05/24 09:48:49;;;;;;;0.08;0.08;;;;;;;30.14;32.86;97866.63;5050022;28;20029;-65
2021/05/24 09:51:17;;;;;;;0.10;0.10;;;;;;;30.16;32.74;97870.72;5047684;28;20411;-66
2021/05/24 09:54:09;;;;;;;0.00;0.00;;;;;;;30.20;32.66;97871.56;5047505;28;20041;-62
2021/05/24 09:56:40;;;;;;;0.20;0.20;;;;;;;30.22;32.61;97857.03;5050113;28;20025;-63
2021/05/24 09:59:13;;;;;;;0.10;0.10;;;;;;;30.24;32.54;97871.59;5052686;28;20471;-63
2021/05/24 10:01:43;;;;;;;0.10;0.10;;;;;;;30.26;32.65;97860.72;5052439;28;20044;-62
2021/05/24 10:04:15;;;;;;;0.08;0.08;;;;;;;30.32;32.36;97856.31;5040402;28;20451;-63
2021/05/24 10:06:41;;;;;;;0.80;0.30;;;;;;;30.38;32.28;97854.75;5050269;28;20041;-66
2021/05/24 10:09:09;;;;;;;0.40;0.40;;;;;;;30.45;32.16;97850.38;5052471;28;20030;-64
2021/05/24 10:11:39;;;;;;;0.00;0.00;;;;;;;30.52;32.04;97842.78;5050866;28;20561;-62
2021/05/24 10:14:07;;;;;;;0.60;0.25;;;;;;;30.60;31.99;97837.97;5053669;28;20037;-63
2021/05/24 10:16:36;;;;;;;0.10;0.10;;;;;;;30.67;31.79;97837.19;5052346;28;20060;-63
2021/05/24 10:19:05;;;;;;;0.10;0.10;;;;;;;30.72;31.76;97831.97;5052143;28;20029;-61
2021/05/24 10:21:31;;;;;;;0.15;0.15;;;;;;;30.78;31.66;97835.25;5053612;28;20155;-62
2021/05/24 10:23:57;;;;;;;0.00;0.00;;;;;;;30.84;31.58;97835.72;5052293;28;20465;-61
2021/05/24 10:26:24;;;;;;;0.20;0.20;;;;;;;30.87;31.46;97832.09;5053146;28;20241;-62
2021/05/24 10:28:52;;;;;;;0.10;0.10;;;;;;;30.88;31.47;97825.22;5053980;28;20036;-62
2021/05/24 10:31:25;;;;;;;3.25;0.15;;;;;;;30.93;31.35;97831.34;5053228;28;20174;-62
2021/05/24 10:33:51;;;;;;;0.93;0.40;;;;;;;31.00;31.36;97830.56;5053290;28;20032;-62
2021/05/24 10:36:38;;;;;;;0.20;0.20;;;;;;;31.04;31.18;97817.25;5035290;28;20029;-59
2021/05/24 10:39:24;;;;;;;0.15;0.15;;;;;;;31.07;31.10;97821.31;5053089;28;20041;-59
2021/05/24 10:41:59;;;;;;;0.00;0.00;;;;;;;31.10;30.96;97807.16;5053254;28;20505;-64
2021/05/24 10:44:45;;;;;;;0.30;0.30;;;;;;;31.16;31.12;97806.78;5053230;28;20041;-61
2021/05/24 10:47:21;;;;;;;3.63;0.32;;;;;;;31.19;30.74;97811.66;5035253;28;20119;-63
2021/05/24 10:50:05;;;;;;;0.15;0.15;;;;;;;31.26;30.85;97803.19;5053440;28;20037;-62
2021/05/24 10:52:34;;;;;;;2.00;0.30;;;;;;;31.29;30.79;97799.56;5053019;28;20033;-60
2021/05/24 10:55:01;;;;;;;0.00;0.00;;;;;;;31.18;30.97;97793.81;5053166;28;20127;-60
2021/05/24 10:57:30;;;;;;;0.10;0.10;;;;;;;31.15;30.65;97793.81;5051960;28;20024;-59
2021/05/24 10:59:57;;;;;;;0.08;0.08;;;;;;;31.22;30.61;97794.66;5035283;28;20128;-59
2021/05/24 11:02:23;;;;;;;0.10;0.10;;;;;;;31.33;30.62;97788.22;5052640;28;20047;-63
2021/05/24 11:05:05;;;;;;;0.98;0.73;;;;;;;31.40;30.37;97757.84;5052929;28;20040;-59
2021/05/24 11:07:48;;;;;;;0.10;0.10;;;;;;;31.49;29.99;97776.53;5052964;28;20029;-62
2021/05/24 11:10:14;;;;;;;0.30;0.30;;;;;;;31.54;30.09;97781.81;5052646;28;20041;-63
2021/05/24 11:12:42;;;;;;;0.00;0.00;;;;;;;31.59;30.05;97770.91;5052975;28;20112;-60
2021/05/24 11:15:09;;;;;;;0.20;0.20;;;;;;;31.59;29.92;97775.78;5052978;28;20041;-62
2021/05/24 11:17:59;;;;;;;0.10;0.10;;;;;;;31.59;29.81;97773.72;5052526;28;20516;-59
2021/05/24 11:20:36;;;;;;;0.10;0.10;;;;;;;31.62;29.71;97763.63;4952754;29;20098;-60
2021/05/24 11:26:19;;;;;;;0.28;0.28;;;;;;;31.77;29.47;97765.28;4939415;28;20504;-60
2021/05/24 11:28:51;;;;;;;0.17;0.17;;;;;;;31.79;29.34;97737.31;4971702;28;20097;-63
2021/05/24 11:31:18;;;;;;;0.00;0.00;;;;;;;31.66;29.47;97770.13;4971612;28;20189;-64
2021/05/24 11:33:58;;;;;;;0.43;0.30;;;;;;;31.66;29.38;97755.94;4971736;28;20038;-63
2021/05/24 11:36:24;;;;;;;0.65;0.20;;;;;;;31.63;29.34;97762.41;4955389;28;20097;-63
2021/05/24 11:39:13;;;;;;;0.10;0.10;;;;;;;31.65;29.29;97742.94;4971665;28;20038;-63